NCAR-RAP Real-Time Weather Data

Output produced by METARs form (12 August 2020  18:08 UTC)
found at http://weather.rap.ucar.edu/surface/
 
KAUS 121753Z 17008G16KT 10SM FEW050 36/22 A2996 RMK AO2 SLP132 T03560217 10356 20256 58009
KAUS 121653Z 19013G18KT 10SM FEW044 34/22 A2998 RMK AO2 SLP138 T03440222
KAUS 121553Z 21009G19KT 10SM FEW027 32/23 A2999 RMK AO2 SLP141 T03220228
KAUS 121453Z 20014KT 10SM FEW022 31/23 A2999 RMK AO2 SLP142 T03110233 50005
KAUS 121353Z 21011G18KT 10SM SCT014 28/24 A2999 RMK AO2 SLP143 T02830239
KAUS 121253Z 19007KT 10SM FEW015 26/24 A2997 RMK AO2 SLP137 T02610244
KAUS 121153Z 19005KT 10SM FEW016 26/24 A2997 RMK AO2 SLP137 T02560244 10283 20256 53005
KAUS 121053Z 20006KT 10SM CLR 26/24 A2996 RMK AO2 SLP130 T02610244
KAUS 120953Z 18007KT 10SM CLR 26/24 A2995 RMK AO2 SLP129 T02610244
KAUS 120853Z 18005KT 10SM CLR 27/24 A2996 RMK AO2 SLP130 T02670244 58001
KAUS 120753Z 18008KT 10SM CLR 27/24 A2996 RMK AO2 SLP131 T02670239
KAUS 120653Z 18007KT 10SM CLR 28/24 A2997 RMK AO2 SLP136 T02780239
KAUS 120553Z 17006KT 10SM CLR 28/23 A2996 RMK AO2 SLP131 T02830233 10372 20283 403890244 51019
KAUS 120453Z 17012KT 10SM CLR 29/23 A2995 RMK AO2 SLP127 T02940228
KAUS 120353Z 18012KT 10SM CLR 31/23 A2993 RMK AO2 SLP123 T03060228
KAUS 120253Z 16015G24KT 10SM CLR 32/23 A2990 RMK AO2 SLP113 T03170228 53017
KAUS 120153Z 15015G20KT 10SM FEW075 34/23 A2989 RMK AO2 SLP107 T03390228
KAUS 120053Z 15013KT 10SM FEW075 36/21 A2986 RMK AO2 SLP099 T03560211
KAUS 112353Z 16008KT 10SM SCT075 SCT250 37/19 A2985 RMK AO2 SLP096 T03720194 10389 20350 56015
KAUS 112253Z 18010G19KT 10SM SCT075 SCT250 38/19 A2987 RMK AO2 SLP100 T03830189
KAUS 112153Z 17009KT 10SM SCT070 BKN250 38/19 A2988 RMK AO2 SLP104 T03780194
KAUS 112053Z VRB05G16KT 10SM SCT065 BKN300 38/21 A2990 RMK AO2 SLP110 T03780206 58028
KAUS 111953Z 19010G19KT 10SM SCT060 BKN300 38/21 A2993 RMK AO2 SLP120 T03780211
KAUS 111853Z 20009G18KT 10SM FEW060 36/21 A2996 RMK AO2 SLP131 T03560211
KAUS 111753Z 21010G18KT 180V250 10SM SCT055 36/22 A2998 RMK AO2 SLP140 T03560217 10356 20250 58012
KAUS 111653Z 20010G20KT 10SM SCT041 34/22 A3000 RMK AO2 SLP147 T03390222
KAUS 111553Z 18012G24KT 10SM SCT034 33/23 A3001 RMK AO2 SLP148 T03280228
KAUS 111453Z 19013KT 10SM FEW021 SCT036 29/24 A3002 RMK AO2 SLP152 T02940239 50002
KAUS 111353Z 19010G15KT 10SM FEW010 FEW025 28/24 A3002 RMK AO2 SLP152 T02780244
KAUS 111317Z 17005KT 8SM FEW008 FEW023 27/25 A3003 RMK AO2 T02670250
KAUS 111253Z 17004KT 8SM FEW025 26/25 A3002 RMK AO2 SLP154 T02610250
KAUS 111153Z 15004KT 10SM FEW024 SCT038 25/24 A3001 RMK AO2 SLP150 T02500239 10278 20244 51012
KAUS 111053Z 00000KT 9SM SCT038 25/23 A3000 RMK AO2 SLP147 T02500233
KAUS 110953Z 20003KT 10SM FEW019 26/24 A2999 RMK AO2 SLP142 T02560244
KAUS 110916Z 16004KT 10SM SCT019 26/24 A2998 RMK AO2 SCT V BKN T02610244
KAUS 110853Z 15006KT 10SM SCT014 BKN021 27/24 A2998 RMK AO2 SLP137 T02670244 58001
KAUS 110822Z 16003KT 10SM BKN014 27/24 A2998 RMK AO2 T02670244
KAUS 110753Z 17005KT 10SM FEW016 26/24 A2998 RMK AO2 SLP138 T02610239
KAUS 110653Z 18005KT 10SM CLR 27/24 A2998 RMK AO2 SLP140 T02670239
KAUS 110553Z 18009KT 10SM CLR 28/23 A2998 RMK AO2 SLP139 T02780233 10361 20278 403830256 51012
KAUS 110453Z 18010G17KT 10SM CLR 29/23 A2998 RMK AO2 SLP138 T02890228
KAUS 110353Z 16011G22KT 10SM CLR 30/22 A2996 RMK AO2 SLP132 T03000222
KAUS 110253Z 16013KT 10SM FEW080 32/21 A2995 RMK AO2 SLP127 T03170211 53009
KAUS 110153Z 15013KT 10SM FEW080 33/21 A2992 RMK AO2 SLP118 T03280211
KAUS 110053Z 16013G21KT 10SM SCT080 34/22 A2991 RMK AO2 SLP116 T03440217
KAUS 102353Z 16012KT 10SM SCT075 BKN095 36/21 A2992 RMK AO2 SLP118 T03610206 10383 20350 56014
KAUS 102253Z 15012KT 10SM SCT070 BKN095 38/20 A2992 RMK AO2 SLP118 T03780200
KAUS 102153Z 18013G20KT 10SM SCT075 BKN090 37/19 A2994 RMK AO2 SLP125 T03720194
KAUS 102053Z 17010G19KT 10SM BKN070 37/19 A2996 RMK AO2 PK WND 17027/2011 SLP132 T03720194 56029
KAUS 101953Z 15009G24KT 10SM FEW060 SCT080 36/21 A2999 RMK AO2 SLP142 T03610206
KAUS 101853Z 19014G19KT 10SM SCT055 SCT070 36/21 A3001 RMK AO2 SLP149 T03560211